sensor_id;sensor_type;location;lat;lon;timestamp;pressure;altitude;pressure_sealevel;temperature;humidity
57248;BME280;55809;46.618;10.764;2022-09-25T00:02:29;92753.19;;;11.06;91.29
57248;BME280;55809;46.618;10.764;2022-09-25T00:05:12;92788.72;;;11.31;90.81
57248;BME280;55809;46.618;10.764;2022-09-25T00:07:43;92702.28;;;10.73;90.14
57248;BME280;55809;46.618;10.764;2022-09-25T00:10:48;92741.63;;;11.01;90.20
57248;BME280;55809;46.618;10.764;2022-09-25T00:13:34;92797.97;;;11.34;90.19
57248;BME280;55809;46.618;10.764;2022-09-25T00:16:14;92797.19;;;11.33;89.66
57248;BME280;55809;46.618;10.764;2022-09-25T00:18:45;92777.31;;;11.20;90.51
57248;BME280;55809;46.618;10.764;2022-09-25T00:21:31;92784.56;;;11.26;90.51
57248;BME280;55809;46.618;10.764;2022-09-25T00:24:00;92794.97;;;11.24;91.04
57248;BME280;55809;46.618;10.764;2022-09-25T00:26:44;92702.13;;;10.53;91.44
57248;BME280;55809;46.618;10.764;2022-09-25T00:29:16;92744.44;;;10.94;92.25
57248;BME280;55809;46.618;10.764;2022-09-25T00:31:55;92760.88;;;11.07;91.29
57248;BME280;55809;46.618;10.764;2022-09-25T00:34:32;92717.19;;;10.82;91.51
57248;BME280;55809;46.618;10.764;2022-09-25T00:41:00;92680.06;;;10.59;91.18
57248;BME280;55809;46.618;10.764;2022-09-25T01:04:52;92721.00;;;11.15;90.29
57248;BME280;55809;46.618;10.764;2022-09-25T01:17:18;92662.94;;;10.72;91.12
57248;BME280;55809;46.618;10.764;2022-09-25T01:30:58;92707.16;;;11.13;91.13
57248;BME280;55809;46.618;10.764;2022-09-25T01:34:04;92731.97;;;11.31;91.35
57248;BME280;55809;46.618;10.764;2022-09-25T01:37:11;92719.75;;;11.23;91.30
57248;BME280;55809;46.618;10.764;2022-09-25T01:40:04;92658.88;;;10.88;90.99
57248;BME280;55809;46.618;10.764;2022-09-25T01:43:14;92634.41;;;10.71;91.14
57248;BME280;55809;46.618;10.764;2022-09-25T01:46:14;92724.63;;;11.35;91.02
57248;BME280;55809;46.618;10.764;2022-09-25T01:49:11;92681.34;;;11.08;90.22
57248;BME280;55809;46.618;10.764;2022-09-25T01:52:16;92623.63;;;10.71;89.96
57248;BME280;55809;46.618;10.764;2022-09-25T01:54:54;92673.72;;;11.03;90.37
57248;BME280;55809;46.618;10.764;2022-09-25T01:57:47;92635.13;;;10.75;90.71
57248;BME280;55809;46.618;10.764;2022-09-25T02:14:18;92698.09;;;11.26;91.06
57248;BME280;55809;46.618;10.764;2022-09-25T02:17:07;92659.34;;;11.10;90.78
57248;BME280;55809;46.618;10.764;2022-09-25T02:20:14;92611.31;;;10.70;90.90
57248;BME280;55809;46.618;10.764;2022-09-25T02:23:12;92633.44;;;10.85;90.93
57248;BME280;55809;46.618;10.764;2022-09-25T02:26:03;92650.94;;;11.04;90.97
57248;BME280;55809;46.618;10.764;2022-09-25T02:28:48;92660.88;;;11.11;90.65
57248;BME280;55809;46.618;10.764;2022-09-25T02:37:36;92647.06;;;11.05;90.72
57248;BME280;55809;46.618;10.764;2022-09-25T02:40:39;92644.72;;;11.07;90.39
57248;BME280;55809;46.618;10.764;2022-09-25T02:43:41;92639.31;;;11.07;89.93
57248;BME280;55809;46.618;10.764;2022-09-25T02:46:58;92633.56;;;11.05;89.78
57248;BME280;55809;46.618;10.764;2022-09-25T02:53:19;92634.28;;;11.09;89.73
57248;BME280;55809;46.618;10.764;2022-09-25T02:56:28;92577.38;;;10.69;89.75
57248;BME280;55809;46.618;10.764;2022-09-25T02:59:17;92618.59;;;11.00;89.82
57248;BME280;55809;46.618;10.764;2022-09-25T03:02:07;92651.69;;;11.32;89.43
57248;BME280;55809;46.618;10.764;2022-09-25T03:05:03;92623.13;;;11.07;89.61
57248;BME280;55809;46.618;10.764;2022-09-25T03:08:15;92654.88;;;11.26;89.64
57248;BME280;55809;46.618;10.764;2022-09-25T03:11:14;92552.84;;;10.60;89.63
57248;BME280;55809;46.618;10.764;2022-09-25T03:14:18;92611.25;;;11.01;89.59
57248;BME280;55809;46.618;10.764;2022-09-25T03:17:25;92573.78;;;10.79;89.28
57248;BME280;55809;46.618;10.764;2022-09-25T03:20:29;92604.28;;;11.03;89.69
57248;BME280;55809;46.618;10.764;2022-09-25T03:23:38;92603.16;;;11.01;89.60
57248;BME280;55809;46.618;10.764;2022-09-25T03:27:06;92572.59;;;10.80;89.21
57248;BME280;55809;46.618;10.764;2022-09-25T03:29:53;92608.84;;;11.07;89.31
57248;BME280;55809;46.618;10.764;2022-09-25T03:32:29;92596.16;;;11.03;89.33
57248;BME280;55809;46.618;10.764;2022-09-25T03:35:20;92600.00;;;11.06;89.13
57248;BME280;55809;46.618;10.764;2022-09-25T03:38:05;92580.84;;;10.97;89.11
57248;BME280;55809;46.618;10.764;2022-09-25T03:43:57;92585.59;;;10.89;88.99
57248;BME280;55809;46.618;10.764;2022-09-25T03:46:37;92570.66;;;10.81;89.09
57248;BME280;55809;46.618;10.764;2022-09-25T03:49:40;92533.31;;;10.49;89.62
57248;BME280;55809;46.618;10.764;2022-09-25T03:52:51;92593.31;;;10.87;90.08
57248;BME280;55809;46.618;10.764;2022-09-25T03:55:51;92585.66;;;10.82;90.08
57248;BME280;55809;46.618;10.764;2022-09-25T03:58:21;92579.97;;;10.76;90.17
57248;BME280;55809;46.618;10.764;2022-09-25T04:01:17;92547.63;;;10.46;90.03
57248;BME280;55809;46.618;10.764;2022-09-25T04:05:01;92541.78;;;10.51;89.92
57248;BME280;55809;46.618;10.764;2022-09-25T04:11:50;92624.53;;;11.15;89.52
57248;BME280;55809;46.618;10.764;2022-09-25T04:14:53;92622.63;;;11.16;89.51
57248;BME280;55809;46.618;10.764;2022-09-25T04:44:42;92512.69;;;10.35;89.72
57248;BME280;55809;46.618;10.764;2022-09-25T04:51:22;92508.44;;;10.38;89.90
57248;BME280;55809;46.618;10.764;2022-09-25T04:54:54;92505.63;;;10.45;89.07
57248;BME280;55809;46.618;10.764;2022-09-25T04:58:09;92571.72;;;10.87;89.05
57248;BME280;55809;46.618;10.764;2022-09-25T05:11:17;92579.78;;;10.64;89.67
57248;BME280;55809;46.618;10.764;2022-09-25T05:13:49;92536.78;;;10.19;90.52
57248;BME280;55809;46.618;10.764;2022-09-25T05:16:21;92604.78;;;10.68;90.30
57248;BME280;55809;46.618;10.764;2022-09-25T05:18:58;92581.53;;;10.47;90.30
57248;BME280;55809;46.618;10.764;2022-09-25T05:21:30;92609.38;;;10.71;90.08
57248;BME280;55809;46.618;10.764;2022-09-25T05:24:00;92572.72;;;10.43;89.92
57248;BME280;55809;46.618;10.764;2022-09-25T05:26:30;92582.16;;;10.58;89.69
57248;BME280;55809;46.618;10.764;2022-09-25T05:29:04;92561.38;;;10.55;90.12
57248;BME280;55809;46.618;10.764;2022-09-25T05:31:32;92561.63;;;10.64;90.04
57248;BME280;55809;46.618;10.764;2022-09-25T05:33:59;92541.78;;;10.51;89.87
57248;BME280;55809;46.618;10.764;2022-09-25T05:36:26;92603.16;;;11.01;89.59
57248;BME280;55809;46.618;10.764;2022-09-25T05:39:05;92544.63;;;10.67;88.88
57248;BME280;55809;46.618;10.764;2022-09-25T05:41:50;92545.41;;;10.68;88.59
57248;BME280;55809;46.618;10.764;2022-09-25T05:44:26;92575.44;;;10.97;87.80
57248;BME280;55809;46.618;10.764;2022-09-25T05:47:27;92525.22;;;10.49;88.16
57248;BME280;55809;46.618;10.764;2022-09-25T05:49:57;92605.41;;;11.06;88.63
57248;BME280;55809;46.618;10.764;2022-09-25T05:52:54;92512.69;;;10.35;89.12
57248;BME280;55809;46.618;10.764;2022-09-25T05:55:37;92532.66;;;10.41;88.93
57248;BME280;55809;46.618;10.764;2022-09-25T05:58:12;92604.78;;;10.95;89.14
57248;BME280;55809;46.618;10.764;2022-09-25T06:00:44;92595.84;;;10.98;88.96
57248;BME280;55809;46.618;10.764;2022-09-25T06:03:11;92552.25;;;10.72;88.43
57248;BME280;55809;46.618;10.764;2022-09-25T06:05:40;92567.41;;;10.93;87.93
57248;BME280;55809;46.618;10.764;2022-09-25T06:08:09;92604.00;;;11.21;87.36
57248;BME280;55809;46.618;10.764;2022-09-25T06:40:37;92524.81;;;13.33;78.83
57248;BME280;55809;46.618;10.764;2022-09-25T06:43:09;92572.28;;;13.70;77.45
57248;BME280;55809;46.618;10.764;2022-09-25T06:45:40;92540.38;;;13.29;78.85
57248;BME280;55809;46.618;10.764;2022-09-25T06:48:10;92567.25;;;13.40;79.21
57248;BME280;55809;46.618;10.764;2022-09-25T06:50:41;92563.06;;;13.51;78.40
57248;BME280;55809;46.618;10.764;2022-09-25T06:53:14;92570.44;;;13.51;78.76
57248;BME280;55809;46.618;10.764;2022-09-25T06:55:47;92565.38;;;13.36;78.51
57248;BME280;55809;46.618;10.764;2022-09-25T06:58:23;92554.78;;;13.42;78.33
57248;BME280;55809;46.618;10.764;2022-09-25T07:01:03;92565.31;;;13.40;78.02
57248;BME280;55809;46.618;10.764;2022-09-25T07:04:01;92556.41;;;13.40;78.29
57248;BME280;55809;46.618;10.764;2022-09-25T07:06:40;92564.09;;;13.57;78.57
57248;BME280;55809;46.618;10.764;2022-09-25T07:09:40;92565.75;;;13.68;77.91
57248;BME280;55809;46.618;10.764;2022-09-25T07:12:42;92555.00;;;13.64;77.47
57248;BME280;55809;46.618;10.764;2022-09-25T07:16:06;92567.13;;;13.76;76.76
57248;BME280;55809;46.618;10.764;2022-09-25T07:19:03;92562.09;;;13.74;76.65
57248;BME280;55809;46.618;10.764;2022-09-25T07:21:35;92547.69;;;14.06;75.50
57248;BME280;55809;46.618;10.764;2022-09-25T07:24:40;92542.88;;;14.27;74.44
57248;BME280;55809;46.618;10.764;2022-09-25T07:27:25;92531.34;;;14.52;72.99
57248;BME280;55809;46.618;10.764;2022-09-25T07:30:39;92539.38;;;14.56;73.89
57248;BME280;55809;46.618;10.764;2022-09-25T07:33:15;92527.22;;;14.86;73.09
57248;BME280;55809;46.618;10.764;2022-09-25T07:36:04;92512.19;;;15.07;71.62
57248;BME280;55809;46.618;10.764;2022-09-25T07:39:13;92536.06;;;16.20;67.43
57248;BME280;55809;46.618;10.764;2022-09-25T07:41:53;92528.91;;;16.88;65.94
57248;BME280;55809;46.618;10.764;2022-09-25T07:44:21;92528.34;;;17.02;65.06
57248;BME280;55809;46.618;10.764;2022-09-25T07:46:51;92524.63;;;17.27;63.84
57248;BME280;55809;46.618;10.764;2022-09-25T07:49:18;92526.69;;;17.64;62.49
57248;BME280;55809;46.618;10.764;2022-09-25T07:51:45;92487.28;;;17.92;60.84
57248;BME280;55809;46.618;10.764;2022-09-25T07:54:12;92506.22;;;18.42;59.60
57248;BME280;55809;46.618;10.764;2022-09-25T07:56:40;92478.19;;;18.23;59.41
57248;BME280;55809;46.618;10.764;2022-09-25T07:59:08;92525.53;;;18.11;60.29
57248;BME280;55809;46.618;10.764;2022-09-25T08:01:37;92522.31;;;18.40;58.94
57248;BME280;55809;46.618;10.764;2022-09-25T08:04:06;92525.50;;;18.38;59.05
57248;BME280;55809;46.618;10.764;2022-09-25T08:06:34;92520.22;;;18.07;58.97
57248;BME280;55809;46.618;10.764;2022-09-25T08:09:01;92516.44;;;18.23;56.78
57248;BME280;55809;46.618;10.764;2022-09-25T08:11:28;92523.69;;;17.71;59.24
57248;BME280;55809;46.618;10.764;2022-09-25T08:13:55;92516.88;;;17.17;60.92
57248;BME280;55809;46.618;10.764;2022-09-25T08:16:23;92511.06;;;16.65;62.48
57248;BME280;55809;46.618;10.764;2022-09-25T08:18:49;92512.50;;;16.26;64.09
57248;BME280;55809;46.618;10.764;2022-09-25T08:21:19;92511.34;;;15.92;65.49
57248;BME280;55809;46.618;10.764;2022-09-25T08:23:48;92516.44;;;15.68;66.28
57248;BME280;55809;46.618;10.764;2022-09-25T08:26:16;92512.00;;;15.48;67.18
57248;BME280;55809;46.618;10.764;2022-09-25T08:28:44;92514.34;;;15.37;67.37
57248;BME280;55809;46.618;10.764;2022-09-25T08:31:11;92514.06;;;15.57;66.81
57248;BME280;55809;46.618;10.764;2022-09-25T08:33:42;92504.16;;;15.63;66.79
57248;BME280;55809;46.618;10.764;2022-09-25T08:36:09;92503.38;;;15.63;67.09
57248;BME280;55809;46.618;10.764;2022-09-25T08:38:38;92508.41;;;15.52;67.29
57248;BME280;55809;46.618;10.764;2022-09-25T08:41:09;92487.31;;;15.43;67.52
57248;BME280;55809;46.618;10.764;2022-09-25T08:43:40;92495.44;;;15.56;67.27
57248;BME280;55809;46.618;10.764;2022-09-25T08:46:17;92492.56;;;15.50;67.33
57248;BME280;55809;46.618;10.764;2022-09-25T08:49:03;92485.38;;;15.43;67.04
57248;BME280;55809;46.618;10.764;2022-09-25T08:51:33;92500.06;;;15.33;67.64
57248;BME280;55809;46.618;10.764;2022-09-25T08:54:04;92492.84;;;15.17;68.54
57248;BME280;55809;46.618;10.764;2022-09-25T08:56:33;92494.91;;;15.13;68.96
57248;BME280;55809;46.618;10.764;2022-09-25T08:59:03;92496.84;;;15.13;69.60
57248;BME280;55809;46.618;10.764;2022-09-25T09:01:41;92506.97;;;15.12;69.92
57248;BME280;55809;46.618;10.764;2022-09-25T09:04:22;92477.97;;;14.96;69.81
57248;BME280;55809;46.618;10.764;2022-09-25T09:06:56;92490.56;;;15.16;69.70
57248;BME280;55809;46.618;10.764;2022-09-25T09:09:28;92478.03;;;15.31;68.29
57248;BME280;55809;46.618;10.764;2022-09-25T09:12:01;92483.75;;;16.03;64.24
57248;BME280;55809;46.618;10.764;2022-09-25T09:14:30;92478.69;;;16.14;63.21
57248;BME280;55809;46.618;10.764;2022-09-25T09:17:04;92488.50;;;16.33;61.80
57248;BME280;55809;46.618;10.764;2022-09-25T09:19:34;92479.22;;;16.31;59.63
57248;BME280;55809;46.618;10.764;2022-09-25T09:22:09;92473.59;;;16.25;60.25
57248;BME280;55809;46.618;10.764;2022-09-25T09:24:49;92475.63;;;16.12;59.83
57248;BME280;55809;46.618;10.764;2022-09-25T09:27:40;92478.19;;;16.06;60.24
57248;BME280;55809;46.618;10.764;2022-09-25T09:30:14;92479.00;;;15.94;60.67
57248;BME280;55809;46.618;10.764;2022-09-25T09:33:09;92472.00;;;15.84;60.44
57248;BME280;55809;46.618;10.764;2022-09-25T09:35:46;92474.56;;;15.87;59.86
57248;BME280;55809;46.618;10.764;2022-09-25T09:38:25;92476.03;;;16.01;60.23
57248;BME280;55809;46.618;10.764;2022-09-25T09:41:12;92462.28;;;16.05;59.94
57248;BME280;55809;46.618;10.764;2022-09-25T09:43:54;92468.31;;;16.00;60.64
57248;BME280;55809;46.618;10.764;2022-09-25T09:46:29;92469.06;;;16.00;60.99
57248;BME280;55809;46.618;10.764;2022-09-25T09:49:12;92472.28;;;16.08;60.56
57248;BME280;55809;46.618;10.764;2022-09-25T09:51:51;92463.16;;;16.02;58.72
57248;BME280;55809;46.618;10.764;2022-09-25T09:54:38;92462.53;;;15.98;58.52
57248;BME280;55809;46.618;10.764;2022-09-25T10:00:13;92448.25;;;15.84;60.84
57248;BME280;55809;46.618;10.764;2022-09-25T10:02:50;92456.47;;;15.93;60.38
57248;BME280;55809;46.618;10.764;2022-09-25T10:05:23;92449.06;;;15.94;61.66
57248;BME280;55809;46.618;10.764;2022-09-25T10:07:51;92448.69;;;16.05;60.17
57248;BME280;55809;46.618;10.764;2022-09-25T10:10:28;92437.53;;;16.12;60.37
57248;BME280;55809;46.618;10.764;2022-09-25T10:12:59;92427.00;;;16.23;60.95
57248;BME280;55809;46.618;10.764;2022-09-25T10:15:35;92432.81;;;16.34;59.86
57248;BME280;55809;46.618;10.764;2022-09-25T10:18:05;92423.13;;;16.33;59.17
57248;BME280;55809;46.618;10.764;2022-09-25T10:20:38;92403.97;;;16.15;59.63
57248;BME280;55809;46.618;10.764;2022-09-25T10:23:21;92422.31;;;16.24;58.45
57248;BME280;55809;46.618;10.764;2022-09-25T10:25:58;92393.41;;;16.17;59.43
57248;BME280;55809;46.618;10.764;2022-09-25T10:28:32;92417.41;;;16.40;59.81
57248;BME280;55809;46.618;10.764;2022-09-25T10:31:02;92423.31;;;16.48;59.55
57248;BME280;55809;46.618;10.764;2022-09-25T10:33:31;92416.81;;;16.46;59.18
57248;BME280;55809;46.618;10.764;2022-09-25T10:35:59;92415.06;;;16.61;57.60
57248;BME280;55809;46.618;10.764;2022-09-25T10:38:33;92392.41;;;16.33;57.48
57248;BME280;55809;46.618;10.764;2022-09-25T10:41:06;92409.41;;;16.46;57.87
57248;BME280;55809;46.618;10.764;2022-09-25T10:43:49;92402.56;;;16.32;59.73
57248;BME280;55809;46.618;10.764;2022-09-25T10:46:25;92411.53;;;16.42;60.41
57248;BME280;55809;46.618;10.764;2022-09-25T10:49:18;92413.63;;;16.47;59.79
57248;BME280;55809;46.618;10.764;2022-09-25T10:52:05;92407.56;;;16.43;59.88
57248;BME280;55809;46.618;10.764;2022-09-25T10:54:47;92418.66;;;16.58;60.19
57248;BME280;55809;46.618;10.764;2022-09-25T10:57:29;92415.56;;;16.69;59.29
57248;BME280;55809;46.618;10.764;2022-09-25T11:00:24;92411.56;;;16.92;60.61
57248;BME280;55809;46.618;10.764;2022-09-25T11:03:05;92415.34;;;17.03;59.74
57248;BME280;55809;46.618;10.764;2022-09-25T11:05:35;92418.81;;;17.04;59.89
57248;BME280;55809;46.618;10.764;2022-09-25T11:08:06;92418.09;;;17.13;59.09
57248;BME280;55809;46.618;10.764;2022-09-25T11:10:50;92411.88;;;17.03;60.62
57248;BME280;55809;46.618;10.764;2022-09-25T11:13:25;92420.78;;;17.03;60.62
57248;BME280;55809;46.618;10.764;2022-09-25T11:16:09;92423.69;;;17.09;59.70
57248;BME280;55809;46.618;10.764;2022-09-25T11:18:42;92426.41;;;17.09;59.41
57248;BME280;55809;46.618;10.764;2022-09-25T11:21:20;92418.25;;;17.18;57.95
57248;BME280;55809;46.618;10.764;2022-09-25T11:24:08;92421.88;;;17.15;60.83
57248;BME280;55809;46.618;10.764;2022-09-25T11:26:42;92410.34;;;17.02;60.18
57248;BME280;55809;46.618;10.764;2022-09-25T11:29:14;92402.44;;;16.85;60.36
57248;BME280;55809;46.618;10.764;2022-09-25T11:31:52;92411.38;;;16.86;59.97
57248;BME280;55809;46.618;10.764;2022-09-25T11:34:35;92404.50;;;16.72;60.48
57248;BME280;55809;46.618;10.764;2022-09-25T11:37:14;92385.06;;;16.61;59.31
57248;BME280;55809;46.618;10.764;2022-09-25T11:39:46;92393.19;;;16.83;59.80
57248;BME280;55809;46.618;10.764;2022-09-25T11:42:37;92362.91;;;16.90;59.84
57248;BME280;55809;46.618;10.764;2022-09-25T11:45:18;92380.09;;;17.18;58.53
57248;BME280;55809;46.618;10.764;2022-09-25T11:48:11;92375.22;;;17.13;55.88
57248;BME280;55809;46.618;10.764;2022-09-25T11:50:47;92346.06;;;16.73;57.60
57248;BME280;55809;46.618;10.764;2022-09-25T11:53:25;92372.56;;;16.73;59.46
57248;BME280;55809;46.618;10.764;2022-09-25T11:56:10;92369.13;;;16.81;57.23
57248;BME280;55809;46.618;10.764;2022-09-25T11:58:52;92372.44;;;16.76;60.30
57248;BME280;55809;46.618;10.764;2022-09-25T12:01:30;92378.97;;;16.79;60.51
57248;BME280;55809;46.618;10.764;2022-09-25T12:04:19;92380.88;;;16.69;61.63
57248;BME280;55809;46.618;10.764;2022-09-25T12:07:10;92375.84;;;16.58;61.50
57248;BME280;55809;46.618;10.764;2022-09-25T12:10:06;92366.25;;;16.35;61.36
57248;BME280;55809;46.618;10.764;2022-09-25T12:12:41;92363.63;;;16.32;60.33
57248;BME280;55809;46.618;10.764;2022-09-25T12:15:20;92360.44;;;16.24;60.84
57248;BME280;55809;46.618;10.764;2022-09-25T12:17:58;92361.38;;;16.30;62.35
57248;BME280;55809;46.618;10.764;2022-09-25T12:20:37;92357.75;;;16.33;62.18
57248;BME280;55809;46.618;10.764;2022-09-25T12:23:19;92360.03;;;16.35;61.59
57248;BME280;55809;46.618;10.764;2022-09-25T12:25:59;92358.41;;;16.47;61.57
57248;BME280;55809;46.618;10.764;2022-09-25T12:28:40;92357.69;;;16.55;60.64
57248;BME280;55809;46.618;10.764;2022-09-25T12:31:18;92345.09;;;16.49;59.16
57248;BME280;55809;46.618;10.764;2022-09-25T12:33:55;92353.09;;;16.43;57.76
57248;BME280;55809;46.618;10.764;2022-09-25T12:36:32;92354.81;;;16.59;58.94
57248;BME280;55809;46.618;10.764;2022-09-25T12:39:07;92348.44;;;16.53;59.36
57248;BME280;55809;46.618;10.764;2022-09-25T12:41:44;92316.44;;;16.26;60.04
57248;BME280;55809;46.618;10.764;2022-09-25T12:44:17;92352.34;;;16.52;60.86
57248;BME280;55809;46.618;10.764;2022-09-25T12:46:51;92343.56;;;16.48;60.20
57248;BME280;55809;46.618;10.764;2022-09-25T12:49:26;92337.22;;;16.51;59.24
57248;BME280;55809;46.618;10.764;2022-09-25T12:52:00;92328.63;;;16.52;60.60
57248;BME280;55809;46.618;10.764;2022-09-25T12:54:35;92332.84;;;16.53;59.47
57248;BME280;55809;46.618;10.764;2022-09-25T12:57:08;92329.66;;;16.46;59.48
57248;BME280;55809;46.618;10.764;2022-09-25T12:59:44;92332.53;;;16.51;61.99
57248;BME280;55809;46.618;10.764;2022-09-25T13:02:17;92326.22;;;16.63;61.79
57248;BME280;55809;46.618;10.764;2022-09-25T13:05:03;92329.41;;;16.62;61.59
57248;BME280;55809;46.618;10.764;2022-09-25T13:07:38;92323.16;;;16.52;60.85
57248;BME280;55809;46.618;10.764;2022-09-25T13:10:23;92329.41;;;16.62;60.74
57248;BME280;55809;46.618;10.764;2022-09-25T13:13:01;92325.16;;;16.70;61.29
57248;BME280;55809;46.618;10.764;2022-09-25T13:15:38;92318.69;;;16.86;60.97
57248;BME280;55809;46.618;10.764;2022-09-25T13:18:18;92316.13;;;16.82;61.61
57248;BME280;55809;46.618;10.764;2022-09-25T13:20:53;92318.50;;;16.71;62.73
57248;BME280;55809;46.618;10.764;2022-09-25T13:23:32;92317.19;;;16.76;62.29
57248;BME280;55809;46.618;10.764;2022-09-25T13:26:09;92314.31;;;16.79;61.52
57248;BME280;55809;46.618;10.764;2022-09-25T13:28:39;92306.28;;;16.85;60.44
57248;BME280;55809;46.618;10.764;2022-09-25T13:31:12;92311.13;;;16.99;59.64
57248;BME280;55809;46.618;10.764;2022-09-25T13:33:44;92309.94;;;16.82;58.62
57248;BME280;55809;46.618;10.764;2022-09-25T13:36:36;92301.75;;;16.82;60.53
57248;BME280;55809;46.618;10.764;2022-09-25T13:39:18;92307.78;;;16.77;62.34
57248;BME280;55809;46.618;10.764;2022-09-25T13:42:05;92299.56;;;16.68;59.87
57248;BME280;55809;46.618;10.764;2022-09-25T13:45:00;92301.97;;;16.56;60.51
57248;BME280;55809;46.618;10.764;2022-09-25T13:47:53;92310.09;;;16.38;61.84
57248;BME280;55809;46.618;10.764;2022-09-25T13:50:25;92301.56;;;16.17;61.83
57248;BME280;55809;46.618;10.764;2022-09-25T13:52:52;92323.56;;;16.32;60.93
57248;BME280;55809;46.618;10.764;2022-09-25T13:56:22;92313.41;;;16.24;59.53
57248;BME280;55809;46.618;10.764;2022-09-25T13:59:17;92319.22;;;16.04;59.96
57248;BME280;55809;46.618;10.764;2022-09-25T14:01:46;92315.38;;;15.92;61.07
57248;BME280;55809;46.618;10.764;2022-09-25T14:04:26;92313.41;;;15.83;62.39
57248;BME280;55809;46.618;10.764;2022-09-25T14:06:54;92318.19;;;15.79;63.37
57248;BME280;55809;46.618;10.764;2022-09-25T14:09:24;92300.69;;;15.58;64.35
57248;BME280;55809;46.618;10.764;2022-09-25T14:12:03;92287.91;;;15.46;64.35
57248;BME280;55809;46.618;10.764;2022-09-25T14:14:38;92313.53;;;15.58;64.52
57248;BME280;55809;46.618;10.764;2022-09-25T14:17:10;92299.72;;;15.52;64.66
57248;BME280;55809;46.618;10.764;2022-09-25T14:19:42;92301.50;;;15.46;65.86
57248;BME280;55809;46.618;10.764;2022-09-25T14:22:18;92303.34;;;15.49;66.59
57248;BME280;55809;46.618;10.764;2022-09-25T14:24:46;92297.53;;;15.60;67.39
57248;BME280;55809;46.618;10.764;2022-09-25T14:27:20;92288.03;;;15.64;66.49
57248;BME280;55809;46.618;10.764;2022-09-25T14:29:48;92297.06;;;15.61;67.19
57248;BME280;55809;46.618;10.764;2022-09-25T14:32:24;92291.00;;;15.57;67.19
57248;BME280;55809;46.618;10.764;2022-09-25T14:35:08;92302.06;;;15.63;66.40
57248;BME280;55809;46.618;10.764;2022-09-25T14:37:53;92297.41;;;15.63;66.95
57248;BME280;55809;46.618;10.764;2022-09-25T14:40:27;92292.94;;;15.69;66.47
57248;BME280;55809;46.618;10.764;2022-09-25T14:43:19;92292.16;;;15.69;66.17
57248;BME280;55809;46.618;10.764;2022-09-25T14:46:01;92298.56;;;15.62;65.03
57248;BME280;55809;46.618;10.764;2022-09-25T14:48:37;92289.00;;;15.70;65.23
57248;BME280;55809;46.618;10.764;2022-09-25T14:51:06;92295.44;;;15.64;65.83
57248;BME280;55809;46.618;10.764;2022-09-25T14:53:39;92290.75;;;15.64;65.80
57248;BME280;55809;46.618;10.764;2022-09-25T14:56:09;92284.63;;;15.73;65.98
57248;BME280;55809;46.618;10.764;2022-09-25T14:58:43;92287.03;;;15.71;66.40
57248;BME280;55809;46.618;10.764;2022-09-25T15:01:26;92288.44;;;15.63;67.07
57248;BME280;55809;46.618;10.764;2022-09-25T15:03:56;92285.88;;;15.59;68.16
57248;BME280;55809;46.618;10.764;2022-09-25T15:06:28;92281.31;;;15.56;69.52
57248;BME280;55809;46.618;10.764;2022-09-25T15:08:56;92269.34;;;15.44;68.50
57248;BME280;55809;46.618;10.764;2022-09-25T15:11:26;92253.50;;;15.21;68.55
57248;BME280;55809;46.618;10.764;2022-09-25T15:14:08;92287.63;;;15.22;69.10
57248;BME280;55809;46.618;10.764;2022-09-25T15:16:36;92254.94;;;14.91;69.09
57248;BME280;55809;46.618;10.764;2022-09-25T15:19:23;92286.97;;;14.96;67.87
57248;BME280;55809;46.618;10.764;2022-09-25T15:21:51;92291.91;;;14.88;69.03
57248;BME280;55809;46.618;10.764;2022-09-25T15:24:21;92287.03;;;14.83;69.82
57248;BME280;55809;46.618;10.764;2022-09-25T15:26:54;92284.75;;;14.82;70.42
57248;BME280;55809;46.618;10.764;2022-09-25T15:29:30;92280.63;;;14.77;70.88
57248;BME280;55809;46.618;10.764;2022-09-25T15:31:59;92289.44;;;14.81;70.87
57248;BME280;55809;46.618;10.764;2022-09-25T15:34:28;92277.88;;;14.68;71.99
57248;BME280;55809;46.618;10.764;2022-09-25T15:37:05;92275.56;;;14.66;71.53
57248;BME280;55809;46.618;10.764;2022-09-25T15:39:39;92274.63;;;14.60;72.01
57248;BME280;55809;46.618;10.764;2022-09-25T15:42:06;92282.88;;;14.57;72.37
57248;BME280;55809;46.618;10.764;2022-09-25T15:44:35;92270.84;;;14.45;72.74
57248;BME280;55809;46.618;10.764;2022-09-25T15:47:01;92281.03;;;14.41;73.09
57248;BME280;55809;46.618;10.764;2022-09-25T15:49:30;92285.53;;;14.35;73.68
57248;BME280;55809;46.618;10.764;2022-09-25T15:52:00;92259.41;;;14.15;73.81
57248;BME280;55809;46.618;10.764;2022-09-25T15:54:33;92288.13;;;14.38;74.59
57248;BME280;55809;46.618;10.764;2022-09-25T15:57:03;92281.03;;;14.41;74.36
57248;BME280;55809;46.618;10.764;2022-09-25T15:59:32;92284.09;;;14.43;74.53
57248;BME280;55809;46.618;10.764;2022-09-25T16:02:15;92278.66;;;14.43;75.27
57248;BME280;55809;46.618;10.764;2022-09-25T16:05:01;92280.28;;;14.40;75.76
57248;BME280;55809;46.618;10.764;2022-09-25T16:07:30;92253.84;;;14.19;75.71
57248;BME280;55809;46.618;10.764;2022-09-25T16:10:01;92287.59;;;14.30;75.72
57248;BME280;55809;46.618;10.764;2022-09-25T16:12:32;92295.31;;;14.32;75.83
57248;BME280;55809;46.618;10.764;2022-09-25T16:15:37;92296.94;;;14.29;74.65
57248;BME280;55809;46.618;10.764;2022-09-25T16:18:23;92295.19;;;14.23;75.94
57248;BME280;55809;46.618;10.764;2022-09-25T16:20:55;92305.41;;;14.19;75.51
57248;BME280;55809;46.618;10.764;2022-09-25T16:23:26;92308.88;;;14.19;75.78
57248;BME280;55809;46.618;10.764;2022-09-25T16:25:54;92305.31;;;14.10;76.56
57248;BME280;55809;46.618;10.764;2022-09-25T16:28:25;92313.69;;;14.02;77.20
57248;BME280;55809;46.618;10.764;2022-09-25T16:30:55;92320.19;;;14.05;77.91